sensor_id;sensor_type;location;lat;lon;timestamp;P1;durP1;ratioP1;P2;durP2;ratioP2
43801;SDS011;29429;51.074;13.764;2022-08-21T00:00:49;46.03;;;31.83;;
43801;SDS011;29429;51.074;13.764;2022-08-21T00:03:16;51.35;;;35.05;;
43801;SDS011;29429;51.074;13.764;2022-08-21T00:05:46;40.97;;;27.88;;
43801;SDS011;29429;51.074;13.764;2022-08-21T00:08:16;37.55;;;26.50;;
43801;SDS011;29429;51.074;13.764;2022-08-21T00:10:46;45.95;;;30.48;;
43801;SDS011;29429;51.074;13.764;2022-08-21T00:13:14;47.10;;;32.25;;
43801;SDS011;29429;51.074;13.764;2022-08-21T00:15:44;44.60;;;29.88;;
43801;SDS011;29429;51.074;13.764;2022-08-21T00:18:12;49.47;;;33.20;;
43801;SDS011;29429;51.074;13.764;2022-08-21T00:20:41;46.83;;;32.45;;
43801;SDS011;29429;51.074;13.764;2022-08-21T00:23:10;48.15;;;32.25;;
43801;SDS011;29429;51.074;13.764;2022-08-21T00:25:38;48.85;;;33.60;;
43801;SDS011;29429;51.074;13.764;2022-08-21T00:28:06;52.90;;;32.85;;
43801;SDS011;29429;51.074;13.764;2022-08-21T00:30:34;37.20;;;26.25;;
43801;SDS011;29429;51.074;13.764;2022-08-21T00:33:02;51.35;;;31.85;;
43801;SDS011;29429;51.074;13.764;2022-08-21T00:35:31;54.42;;;37.22;;
43801;SDS011;29429;51.074;13.764;2022-08-21T00:38:04;50.95;;;32.80;;
43801;SDS011;29429;51.074;13.764;2022-08-21T00:40:39;40.20;;;27.00;;
43801;SDS011;29429;51.074;13.764;2022-08-21T00:43:21;34.65;;;25.05;;
43801;SDS011;29429;51.074;13.764;2022-08-21T00:45:56;53.08;;;33.78;;
43801;SDS011;29429;51.074;13.764;2022-08-21T00:48:24;42.33;;;28.30;;
43801;SDS011;29429;51.074;13.764;2022-08-21T00:50:56;56.00;;;35.70;;
43801;SDS011;29429;51.074;13.764;2022-08-21T00:53:42;53.00;;;35.72;;
43801;SDS011;29429;51.074;13.764;2022-08-21T00:56:19;70.45;;;40.28;;
43801;SDS011;29429;51.074;13.764;2022-08-21T00:58:51;64.15;;;38.83;;
43801;SDS011;29429;51.074;13.764;2022-08-21T01:01:21;65.13;;;40.50;;
43801;SDS011;29429;51.074;13.764;2022-08-21T01:03:48;52.25;;;34.05;;
43801;SDS011;29429;51.074;13.764;2022-08-21T01:06:17;65.22;;;39.80;;
43801;SDS011;29429;51.074;13.764;2022-08-21T01:08:44;65.90;;;43.13;;
43801;SDS011;29429;51.074;13.764;2022-08-21T01:11:13;71.22;;;42.50;;
43801;SDS011;29429;51.074;13.764;2022-08-21T01:13:41;70.85;;;41.25;;
43801;SDS011;29429;51.074;13.764;2022-08-21T01:16:13;61.80;;;38.88;;
43801;SDS011;29429;51.074;13.764;2022-08-21T01:18:45;57.78;;;37.03;;
43801;SDS011;29429;51.074;13.764;2022-08-21T01:21:21;58.13;;;36.50;;
43801;SDS011;29429;51.074;13.764;2022-08-21T01:23:54;65.30;;;38.67;;
43801;SDS011;29429;51.074;13.764;2022-08-21T01:26:24;58.65;;;35.58;;
43801;SDS011;29429;51.074;13.764;2022-08-21T01:31:58;46.08;;;28.98;;
43801;SDS011;29429;51.074;13.764;2022-08-21T01:34:31;39.20;;;25.45;;
43801;SDS011;29429;51.074;13.764;2022-08-21T01:37:02;37.10;;;24.70;;
43801;SDS011;29429;51.074;13.764;2022-08-21T01:39:29;37.08;;;25.92;;
43801;SDS011;29429;51.074;13.764;2022-08-21T01:41:56;34.53;;;23.20;;
43801;SDS011;29429;51.074;13.764;2022-08-21T01:44:23;35.58;;;23.23;;
43801;SDS011;29429;51.074;13.764;2022-08-21T01:46:51;32.63;;;22.50;;
43801;SDS011;29429;51.074;13.764;2022-08-21T01:49:19;36.60;;;21.88;;
43801;SDS011;29429;51.074;13.764;2022-08-21T01:51:46;27.17;;;18.85;;
43801;SDS011;29429;51.074;13.764;2022-08-21T01:54:13;28.77;;;20.88;;
43801;SDS011;29429;51.074;13.764;2022-08-21T01:56:41;32.78;;;20.95;;
43801;SDS011;29429;51.074;13.764;2022-08-21T01:59:12;26.42;;;18.83;;
43801;SDS011;29429;51.074;13.764;2022-08-21T02:01:40;34.15;;;22.27;;
43801;SDS011;29429;51.074;13.764;2022-08-21T02:04:07;28.95;;;20.88;;
43801;SDS011;29429;51.074;13.764;2022-08-21T02:06:36;31.23;;;21.05;;
43801;SDS011;29429;51.074;13.764;2022-08-21T02:09:05;29.33;;;19.45;;
43801;SDS011;29429;51.074;13.764;2022-08-21T02:11:35;20.25;;;15.20;;
43801;SDS011;29429;51.074;13.764;2022-08-21T02:14:09;24.67;;;17.67;;
43801;SDS011;29429;51.074;13.764;2022-08-21T02:16:40;25.98;;;18.42;;
43801;SDS011;29429;51.074;13.764;2022-08-21T02:19:11;24.73;;;17.25;;
43801;SDS011;29429;51.074;13.764;2022-08-21T02:21:40;21.15;;;16.15;;
43801;SDS011;29429;51.074;13.764;2022-08-21T02:24:08;23.02;;;17.15;;
43801;SDS011;29429;51.074;13.764;2022-08-21T02:26:37;25.98;;;18.20;;
43801;SDS011;29429;51.074;13.764;2022-08-21T02:29:04;24.10;;;18.40;;
43801;SDS011;29429;51.074;13.764;2022-08-21T02:31:31;22.20;;;17.67;;
43801;SDS011;29429;51.074;13.764;2022-08-21T02:33:58;21.38;;;16.05;;
43801;SDS011;29429;51.074;13.764;2022-08-21T02:36:26;25.00;;;18.50;;
43801;SDS011;29429;51.074;13.764;2022-08-21T02:38:54;29.50;;;20.00;;
43801;SDS011;29429;51.074;13.764;2022-08-21T02:41:22;21.63;;;16.42;;
43801;SDS011;29429;51.074;13.764;2022-08-21T02:43:49;21.90;;;17.23;;
43801;SDS011;29429;51.074;13.764;2022-08-21T02:46:18;23.73;;;17.35;;
43801;SDS011;29429;51.074;13.764;2022-08-21T02:48:47;21.90;;;15.80;;
43801;SDS011;29429;51.074;13.764;2022-08-21T02:51:15;24.33;;;16.75;;
43801;SDS011;29429;51.074;13.764;2022-08-21T02:53:46;19.75;;;15.27;;
43801;SDS011;29429;51.074;13.764;2022-08-21T02:56:15;17.27;;;13.45;;
43801;SDS011;29429;51.074;13.764;2022-08-21T02:58:45;20.17;;;15.45;;
43801;SDS011;29429;51.074;13.764;2022-08-21T03:01:17;16.98;;;12.27;;
43801;SDS011;29429;51.074;13.764;2022-08-21T03:03:46;18.48;;;13.73;;
43801;SDS011;29429;51.074;13.764;2022-08-21T03:06:18;18.80;;;14.93;;
43801;SDS011;29429;51.074;13.764;2022-08-21T03:08:49;19.60;;;14.70;;
43801;SDS011;29429;51.074;13.764;2022-08-21T03:11:17;15.80;;;12.95;;
43801;SDS011;29429;51.074;13.764;2022-08-21T03:13:46;19.75;;;15.45;;
43801;SDS011;29429;51.074;13.764;2022-08-21T03:16:13;19.58;;;16.13;;
43801;SDS011;29429;51.074;13.764;2022-08-21T03:18:40;22.10;;;17.30;;
43801;SDS011;29429;51.074;13.764;2022-08-21T03:21:07;17.80;;;13.73;;
43801;SDS011;29429;51.074;13.764;2022-08-21T03:23:34;19.58;;;15.07;;
43801;SDS011;29429;51.074;13.764;2022-08-21T03:26:02;19.83;;;15.57;;
43801;SDS011;29429;51.074;13.764;2022-08-21T03:28:30;20.20;;;16.38;;
43801;SDS011;29429;51.074;13.764;2022-08-21T03:30:57;29.05;;;20.38;;
43801;SDS011;29429;51.074;13.764;2022-08-21T03:33:24;25.27;;;18.63;;
43801;SDS011;29429;51.074;13.764;2022-08-21T03:35:58;31.50;;;21.35;;
43801;SDS011;29429;51.074;13.764;2022-08-21T03:38:31;35.03;;;22.15;;
43801;SDS011;29429;51.074;13.764;2022-08-21T03:41:01;25.23;;;17.73;;
43801;SDS011;29429;51.074;13.764;2022-08-21T03:43:30;27.40;;;18.55;;
43801;SDS011;29429;51.074;13.764;2022-08-21T03:46:01;19.13;;;14.20;;
43801;SDS011;29429;51.074;13.764;2022-08-21T03:48:31;23.50;;;17.27;;
43801;SDS011;29429;51.074;13.764;2022-08-21T03:51:01;24.77;;;17.90;;
43801;SDS011;29429;51.074;13.764;2022-08-21T03:53:29;24.05;;;17.85;;
43801;SDS011;29429;51.074;13.764;2022-08-21T03:55:56;22.73;;;17.95;;
43801;SDS011;29429;51.074;13.764;2022-08-21T03:58:24;23.63;;;15.98;;
43801;SDS011;29429;51.074;13.764;2022-08-21T04:00:54;20.85;;;15.85;;
43801;SDS011;29429;51.074;13.764;2022-08-21T04:03:24;18.90;;;13.52;;
43801;SDS011;29429;51.074;13.764;2022-08-21T04:05:53;18.17;;;14.43;;
43801;SDS011;29429;51.074;13.764;2022-08-21T04:08:20;22.38;;;16.75;;
43801;SDS011;29429;51.074;13.764;2022-08-21T04:10:47;18.67;;;13.73;;
43801;SDS011;29429;51.074;13.764;2022-08-21T04:13:18;21.40;;;15.15;;
43801;SDS011;29429;51.074;13.764;2022-08-21T04:15:46;25.33;;;17.15;;
43801;SDS011;29429;51.074;13.764;2022-08-21T04:18:14;22.13;;;16.75;;
43801;SDS011;29429;51.074;13.764;2022-08-21T04:20:42;23.63;;;17.33;;
43801;SDS011;29429;51.074;13.764;2022-08-21T04:23:16;22.08;;;15.57;;
43801;SDS011;29429;51.074;13.764;2022-08-21T04:25:50;21.08;;;15.27;;
43801;SDS011;29429;51.074;13.764;2022-08-21T04:28:22;22.75;;;15.65;;
43801;SDS011;29429;51.074;13.764;2022-08-21T04:30:54;18.25;;;12.85;;
43801;SDS011;29429;51.074;13.764;2022-08-21T04:33:22;18.92;;;13.50;;
43801;SDS011;29429;51.074;13.764;2022-08-21T04:35:49;21.00;;;15.13;;
43801;SDS011;29429;51.074;13.764;2022-08-21T04:38:16;19.23;;;14.27;;
43801;SDS011;29429;51.074;13.764;2022-08-21T04:40:44;20.55;;;15.27;;
43801;SDS011;29429;51.074;13.764;2022-08-21T04:43:12;20.35;;;15.50;;
43801;SDS011;29429;51.074;13.764;2022-08-21T04:45:43;20.45;;;15.85;;
43801;SDS011;29429;51.074;13.764;2022-08-21T04:48:14;21.25;;;16.05;;
43801;SDS011;29429;51.074;13.764;2022-08-21T04:50:56;27.00;;;19.73;;
43801;SDS011;29429;51.074;13.764;2022-08-21T04:56:07;23.15;;;17.83;;
43801;SDS011;29429;51.074;13.764;2022-08-21T04:58:39;20.40;;;15.43;;
43801;SDS011;29429;51.074;13.764;2022-08-21T05:01:09;19.00;;;15.15;;
43801;SDS011;29429;51.074;13.764;2022-08-21T05:03:43;15.05;;;12.38;;
43801;SDS011;29429;51.074;13.764;2022-08-21T05:06:13;17.50;;;13.38;;
43801;SDS011;29429;51.074;13.764;2022-08-21T05:08:42;17.60;;;13.85;;
43801;SDS011;29429;51.074;13.764;2022-08-21T05:11:13;19.13;;;14.80;;
43801;SDS011;29429;51.074;13.764;2022-08-21T05:13:40;17.10;;;13.45;;
43801;SDS011;29429;51.074;13.764;2022-08-21T05:16:08;19.02;;;15.25;;
43801;SDS011;29429;51.074;13.764;2022-08-21T05:18:35;20.35;;;14.88;;
43801;SDS011;29429;51.074;13.764;2022-08-21T05:21:02;23.08;;;17.88;;
43801;SDS011;29429;51.074;13.764;2022-08-21T05:23:29;18.20;;;14.80;;
43801;SDS011;29429;51.074;13.764;2022-08-21T05:25:56;17.00;;;13.93;;
43801;SDS011;29429;51.074;13.764;2022-08-21T05:28:24;17.55;;;13.63;;
43801;SDS011;29429;51.074;13.764;2022-08-21T05:30:52;19.05;;;15.15;;
43801;SDS011;29429;51.074;13.764;2022-08-21T05:33:19;18.95;;;15.15;;
43801;SDS011;29429;51.074;13.764;2022-08-21T05:35:49;20.67;;;16.70;;
43801;SDS011;29429;51.074;13.764;2022-08-21T05:38:18;24.38;;;18.33;;
43801;SDS011;29429;51.074;13.764;2022-08-21T05:40:45;20.15;;;16.48;;
43801;SDS011;29429;51.074;13.764;2022-08-21T05:43:13;23.42;;;18.00;;
43801;SDS011;29429;51.074;13.764;2022-08-21T05:45:41;19.80;;;16.15;;
43801;SDS011;29429;51.074;13.764;2022-08-21T05:48:13;21.30;;;17.35;;
43801;SDS011;29429;51.074;13.764;2022-08-21T05:50:46;23.60;;;17.92;;
43801;SDS011;29429;51.074;13.764;2022-08-21T05:53:15;21.67;;;17.75;;
43801;SDS011;29429;51.074;13.764;2022-08-21T05:55:45;21.17;;;15.55;;
43801;SDS011;29429;51.074;13.764;2022-08-21T05:58:13;23.30;;;16.90;;
43801;SDS011;29429;51.074;13.764;2022-08-21T06:00:45;26.75;;;19.75;;
43801;SDS011;29429;51.074;13.764;2022-08-21T06:03:19;22.33;;;17.02;;
43801;SDS011;29429;51.074;13.764;2022-08-21T06:05:53;25.77;;;20.30;;
43801;SDS011;29429;51.074;13.764;2022-08-21T06:08:22;23.98;;;20.17;;
43801;SDS011;29429;51.074;13.764;2022-08-21T06:10:51;28.08;;;21.27;;
43801;SDS011;29429;51.074;13.764;2022-08-21T06:13:19;25.05;;;19.55;;
43801;SDS011;29429;51.074;13.764;2022-08-21T06:15:48;24.15;;;20.13;;
43801;SDS011;29429;51.074;13.764;2022-08-21T06:18:26;23.85;;;19.33;;
43801;SDS011;29429;51.074;13.764;2022-08-21T06:20:52;23.70;;;18.95;;
43801;SDS011;29429;51.074;13.764;2022-08-21T06:23:19;24.27;;;19.95;;
43801;SDS011;29429;51.074;13.764;2022-08-21T06:25:58;27.48;;;21.92;;
43801;SDS011;29429;51.074;13.764;2022-08-21T06:28:26;27.63;;;23.23;;
43801;SDS011;29429;51.074;13.764;2022-08-21T06:30:53;28.85;;;21.50;;
43801;SDS011;29429;51.074;13.764;2022-08-21T06:33:21;25.67;;;21.45;;
43801;SDS011;29429;51.074;13.764;2022-08-21T06:35:48;31.23;;;22.33;;
43801;SDS011;29429;51.074;13.764;2022-08-21T06:38:14;28.67;;;22.42;;
43801;SDS011;29429;51.074;13.764;2022-08-21T06:40:41;25.23;;;22.00;;
43801;SDS011;29429;51.074;13.764;2022-08-21T06:43:15;35.42;;;25.13;;
43801;SDS011;29429;51.074;13.764;2022-08-21T06:45:43;31.30;;;23.75;;
43801;SDS011;29429;51.074;13.764;2022-08-21T06:48:10;25.05;;;21.40;;
43801;SDS011;29429;51.074;13.764;2022-08-21T06:50:44;24.48;;;20.58;;
43801;SDS011;29429;51.074;13.764;2022-08-21T06:53:13;25.45;;;21.33;;
43801;SDS011;29429;51.074;13.764;2022-08-21T06:55:44;22.73;;;20.30;;
43801;SDS011;29429;51.074;13.764;2022-08-21T06:58:12;23.77;;;20.33;;
43801;SDS011;29429;51.074;13.764;2022-08-21T07:00:40;21.92;;;19.40;;
43801;SDS011;29429;51.074;13.764;2022-08-21T07:03:44;22.40;;;19.05;;
43801;SDS011;29429;51.074;13.764;2022-08-21T07:06:06;19.40;;;17.30;;
43801;SDS011;29429;51.074;13.764;2022-08-21T07:08:37;20.58;;;18.38;;
43801;SDS011;29429;51.074;13.764;2022-08-21T07:11:07;21.17;;;18.98;;
43801;SDS011;29429;51.074;13.764;2022-08-21T07:13:43;22.23;;;19.30;;
43801;SDS011;29429;51.074;13.764;2022-08-21T07:16:10;20.98;;;17.75;;
43801;SDS011;29429;51.074;13.764;2022-08-21T07:18:38;21.33;;;18.45;;
43801;SDS011;29429;51.074;13.764;2022-08-21T07:21:05;24.90;;;19.00;;
43801;SDS011;29429;51.074;13.764;2022-08-21T07:23:36;21.00;;;16.17;;
43801;SDS011;29429;51.074;13.764;2022-08-21T07:28:35;19.45;;;16.23;;
43801;SDS011;29429;51.074;13.764;2022-08-21T07:31:03;20.83;;;17.25;;
43801;SDS011;29429;51.074;13.764;2022-08-21T07:33:31;18.80;;;16.23;;
43801;SDS011;29429;51.074;13.764;2022-08-21T07:36:00;17.33;;;15.15;;
43801;SDS011;29429;51.074;13.764;2022-08-21T07:38:28;22.23;;;17.45;;
43801;SDS011;29429;51.074;13.764;2022-08-21T07:40:55;19.45;;;17.27;;
43801;SDS011;29429;51.074;13.764;2022-08-21T07:43:25;20.70;;;18.48;;
43801;SDS011;29429;51.074;13.764;2022-08-21T07:45:52;19.13;;;16.67;;
43801;SDS011;29429;51.074;13.764;2022-08-21T07:48:23;19.67;;;17.60;;
43801;SDS011;29429;51.074;13.764;2022-08-21T07:50:50;17.30;;;15.40;;
43801;SDS011;29429;51.074;13.764;2022-08-21T07:53:17;16.15;;;14.07;;
43801;SDS011;29429;51.074;13.764;2022-08-21T07:55:44;17.88;;;14.93;;
43801;SDS011;29429;51.074;13.764;2022-08-21T07:58:11;15.82;;;14.15;;
43801;SDS011;29429;51.074;13.764;2022-08-21T08:00:38;16.60;;;14.85;;
43801;SDS011;29429;51.074;13.764;2022-08-21T08:03:06;15.90;;;14.25;;
43801;SDS011;29429;51.074;13.764;2022-08-21T08:05:33;15.35;;;13.82;;
43801;SDS011;29429;51.074;13.764;2022-08-21T08:08:03;14.88;;;13.38;;
43801;SDS011;29429;51.074;13.764;2022-08-21T08:10:30;14.73;;;13.23;;
43801;SDS011;29429;51.074;13.764;2022-08-21T08:12:57;13.98;;;12.57;;
43801;SDS011;29429;51.074;13.764;2022-08-21T08:15:25;14.60;;;12.27;;
43801;SDS011;29429;51.074;13.764;2022-08-21T08:17:54;15.07;;;13.57;;
43801;SDS011;29429;51.074;13.764;2022-08-21T08:20:23;18.10;;;13.88;;
43801;SDS011;29429;51.074;13.764;2022-08-21T08:22:53;12.73;;;11.43;;
43801;SDS011;29429;51.074;13.764;2022-08-21T08:25:21;12.82;;;11.63;;
43801;SDS011;29429;51.074;13.764;2022-08-21T08:27:50;12.85;;;11.60;;
43801;SDS011;29429;51.074;13.764;2022-08-21T08:30:17;12.23;;;10.70;;
43801;SDS011;29429;51.074;13.764;2022-08-21T08:32:47;13.45;;;11.80;;
43801;SDS011;29429;51.074;13.764;2022-08-21T08:35:15;14.35;;;12.43;;
43801;SDS011;29429;51.074;13.764;2022-08-21T08:37:47;14.15;;;11.27;;
43801;SDS011;29429;51.074;13.764;2022-08-21T08:40:21;14.30;;;11.23;;
43801;SDS011;29429;51.074;13.764;2022-08-21T08:43:08;12.50;;;11.20;;
43801;SDS011;29429;51.074;13.764;2022-08-21T08:45:40;12.70;;;10.88;;
43801;SDS011;29429;51.074;13.764;2022-08-21T08:48:14;13.95;;;12.00;;
43801;SDS011;29429;51.074;13.764;2022-08-21T08:51:02;13.15;;;11.80;;
43801;SDS011;29429;51.074;13.764;2022-08-21T08:53:45;11.35;;;10.25;;
43801;SDS011;29429;51.074;13.764;2022-08-21T08:56:27;12.85;;;10.65;;
43801;SDS011;29429;51.074;13.764;2022-08-21T08:59:00;10.80;;;9.70;;
43801;SDS011;29429;51.074;13.764;2022-08-21T09:01:45;12.68;;;11.38;;
43801;SDS011;29429;51.074;13.764;2022-08-21T09:04:13;9.63;;;8.63;;
43801;SDS011;29429;51.074;13.764;2022-08-21T09:06:55;10.98;;;9.38;;
43801;SDS011;29429;51.074;13.764;2022-08-21T09:09:53;15.25;;;10.73;;
43801;SDS011;29429;51.074;13.764;2022-08-21T09:13:14;10.63;;;9.43;;
43801;SDS011;29429;51.074;13.764;2022-08-21T09:18:42;9.02;;;6.07;;
43801;SDS011;29429;51.074;13.764;2022-08-21T09:21:53;9.38;;;5.97;;
43801;SDS011;29429;51.074;13.764;2022-08-21T09:25:26;8.10;;;5.40;;
43801;SDS011;29429;51.074;13.764;2022-08-21T09:27:48;10.25;;;4.63;;
43801;SDS011;29429;51.074;13.764;2022-08-21T09:30:16;8.60;;;5.13;;
43801;SDS011;29429;51.074;13.764;2022-08-21T09:32:49;6.93;;;5.97;;
43801;SDS011;29429;51.074;13.764;2022-08-21T09:35:17;11.63;;;6.68;;
43801;SDS011;29429;51.074;13.764;2022-08-21T09:45:38;8.35;;;3.80;;
43801;SDS011;29429;51.074;13.764;2022-08-21T09:48:29;5.90;;;3.72;;
43801;SDS011;29429;51.074;13.764;2022-08-21T09:51:08;5.72;;;3.90;;
43801;SDS011;29429;51.074;13.764;2022-08-21T09:53:43;6.35;;;3.80;;
43801;SDS011;29429;51.074;13.764;2022-08-21T09:56:20;5.40;;;3.80;;
43801;SDS011;29429;51.074;13.764;2022-08-21T10:05:15;5.05;;;3.25;;
43801;SDS011;29429;51.074;13.764;2022-08-21T10:07:42;8.57;;;3.15;;
43801;SDS011;29429;51.074;13.764;2022-08-21T10:10:28;5.68;;;2.70;;
43801;SDS011;29429;51.074;13.764;2022-08-21T10:15:47;7.65;;;3.25;;
43801;SDS011;29429;51.074;13.764;2022-08-21T10:18:20;5.25;;;2.47;;
43801;SDS011;29429;51.074;13.764;2022-08-21T10:21:08;5.93;;;2.80;;
43801;SDS011;29429;51.074;13.764;2022-08-21T10:29:56;7.55;;;2.40;;
43801;SDS011;29429;51.074;13.764;2022-08-21T10:32:59;5.80;;;2.42;;
43801;SDS011;29429;51.074;13.764;2022-08-21T10:45:02;3.75;;;2.22;;
43801;SDS011;29429;51.074;13.764;2022-08-21T10:47:47;6.05;;;2.60;;
43801;SDS011;29429;51.074;13.764;2022-08-21T10:50:31;8.30;;;2.78;;
43801;SDS011;29429;51.074;13.764;2022-08-21T10:56:22;5.65;;;2.20;;
43801;SDS011;29429;51.074;13.764;2022-08-21T11:02:17;6.38;;;2.28;;
43801;SDS011;29429;51.074;13.764;2022-08-21T11:05:14;5.82;;;2.47;;
43801;SDS011;29429;51.074;13.764;2022-08-21T11:08:15;5.85;;;2.30;;
43801;SDS011;29429;51.074;13.764;2022-08-21T11:11:10;4.50;;;2.20;;
43801;SDS011;29429;51.074;13.764;2022-08-21T11:13:58;4.45;;;2.10;;
43801;SDS011;29429;51.074;13.764;2022-08-21T11:16:41;4.03;;;1.90;;
43801;SDS011;29429;51.074;13.764;2022-08-21T11:25:21;4.32;;;1.65;;
43801;SDS011;29429;51.074;13.764;2022-08-21T11:28:03;4.20;;;1.60;;
43801;SDS011;29429;51.074;13.764;2022-08-21T11:36:37;5.05;;;2.10;;
43801;SDS011;29429;51.074;13.764;2022-08-21T11:39:34;8.00;;;2.00;;
43801;SDS011;29429;51.074;13.764;2022-08-21T11:45:22;5.55;;;2.00;;
43801;SDS011;29429;51.074;13.764;2022-08-21T11:53:51;5.32;;;1.77;;
43801;SDS011;29429;51.074;13.764;2022-08-21T11:57:02;4.95;;;1.73;;
43801;SDS011;29429;51.074;13.764;2022-08-21T12:02:44;5.03;;;1.60;;
43801;SDS011;29429;51.074;13.764;2022-08-21T12:13:51;2.65;;;1.02;;
43801;SDS011;29429;51.074;13.764;2022-08-21T12:16:34;3.45;;;1.23;;
43801;SDS011;29429;51.074;13.764;2022-08-21T12:19:12;9.38;;;1.67;;
43801;SDS011;29429;51.074;13.764;2022-08-21T12:21:50;4.63;;;1.20;;
43801;SDS011;29429;51.074;13.764;2022-08-21T12:26:57;3.28;;;1.25;;
43801;SDS011;29429;51.074;13.764;2022-08-21T12:29:43;6.22;;;1.35;;
43801;SDS011;29429;51.074;13.764;2022-08-21T12:35:01;6.25;;;1.60;;
43801;SDS011;29429;51.074;13.764;2022-08-21T12:37:59;9.15;;;1.58;;
43801;SDS011;29429;51.074;13.764;2022-08-21T12:43:42;5.07;;;1.30;;
43801;SDS011;29429;51.074;13.764;2022-08-21T12:46:16;2.45;;;1.23;;
43801;SDS011;29429;51.074;13.764;2022-08-21T12:49:08;6.00;;;1.33;;
43801;SDS011;29429;51.074;13.764;2022-08-21T12:54:23;6.45;;;1.27;;
43801;SDS011;29429;51.074;13.764;2022-08-21T12:57:01;5.95;;;1.20;;
43801;SDS011;29429;51.074;13.764;2022-08-21T12:59:32;4.75;;;1.30;;
43801;SDS011;29429;51.074;13.764;2022-08-21T13:02:10;5.13;;;1.20;;
43801;SDS011;29429;51.074;13.764;2022-08-21T13:04:47;6.75;;;1.48;;
43801;SDS011;29429;51.074;13.764;2022-08-21T13:07:19;5.55;;;1.30;;
43801;SDS011;29429;51.074;13.764;2022-08-21T13:12:42;3.75;;;1.10;;
43801;SDS011;29429;51.074;13.764;2022-08-21T13:15:11;5.97;;;1.27;;
43801;SDS011;29429;51.074;13.764;2022-08-21T13:17:41;4.75;;;1.25;;
43801;SDS011;29429;51.074;13.764;2022-08-21T13:22:51;3.58;;;1.20;;
43801;SDS011;29429;51.074;13.764;2022-08-21T13:25:19;5.50;;;1.27;;
43801;SDS011;29429;51.074;13.764;2022-08-21T13:27:59;6.93;;;1.45;;
43801;SDS011;29429;51.074;13.764;2022-08-21T13:30:32;2.35;;;1.27;;
43801;SDS011;29429;51.074;13.764;2022-08-21T13:33:01;7.78;;;1.45;;
43801;SDS011;29429;51.074;13.764;2022-08-21T13:35:51;2.83;;;1.35;;
43801;SDS011;29429;51.074;13.764;2022-08-21T13:38:39;4.70;;;1.30;;
43801;SDS011;29429;51.074;13.764;2022-08-21T13:41:22;2.83;;;1.25;;
43801;SDS011;29429;51.074;13.764;2022-08-21T13:44:05;3.78;;;1.05;;
43801;SDS011;29429;51.074;13.764;2022-08-21T13:46:33;5.75;;;1.20;;
43801;SDS011;29429;51.074;13.764;2022-08-21T13:49:03;2.50;;;1.05;;
43801;SDS011;29429;51.074;13.764;2022-08-21T13:51:33;3.30;;;1.13;;
43801;SDS011;29429;51.074;13.764;2022-08-21T13:54:14;5.93;;;1.23;;
43801;SDS011;29429;51.074;13.764;2022-08-21T13:56:53;4.20;;;1.38;;
43801;SDS011;29429;51.074;13.764;2022-08-21T13:59:39;4.80;;;1.20;;
43801;SDS011;29429;51.074;13.764;2022-08-21T14:02:16;3.42;;;1.02;;
43801;SDS011;29429;51.074;13.764;2022-08-21T14:05:38;3.63;;;1.30;;
43801;SDS011;29429;51.074;13.764;2022-08-21T14:07:43;5.97;;;1.42;;
43801;SDS011;29429;51.074;13.764;2022-08-21T14:10:14;5.95;;;1.38;;
43801;SDS011;29429;51.074;13.764;2022-08-21T14:12:48;4.25;;;1.10;;
43801;SDS011;29429;51.074;13.764;2022-08-21T14:15:24;3.70;;;1.20;;
43801;SDS011;29429;51.074;13.764;2022-08-21T14:18:13;5.93;;;1.48;;
43801;SDS011;29429;51.074;13.764;2022-08-21T14:20:43;3.63;;;1.45;;
43801;SDS011;29429;51.074;13.764;2022-08-21T14:23:11;4.05;;;1.38;;
43801;SDS011;29429;51.074;13.764;2022-08-21T14:25:50;3.55;;;1.58;;
43801;SDS011;29429;51.074;13.764;2022-08-21T14:30:53;3.97;;;1.40;;
43801;SDS011;29429;51.074;13.764;2022-08-21T14:33:25;4.47;;;1.10;;
43801;SDS011;29429;51.074;13.764;2022-08-21T14:35:54;4.70;;;1.50;;
43801;SDS011;29429;51.074;13.764;2022-08-21T14:38:25;3.67;;;1.13;;
43801;SDS011;29429;51.074;13.764;2022-08-21T14:40:55;2.42;;;1.08;;
43801;SDS011;29429;51.074;13.764;2022-08-21T14:43:34;3.20;;;1.10;;
43801;SDS011;29429;51.074;13.764;2022-08-21T14:46:01;4.57;;;1.38;;
43801;SDS011;29429;51.074;13.764;2022-08-21T14:48:27;4.25;;;1.67;;
43801;SDS011;29429;51.074;13.764;2022-08-21T14:50:55;3.55;;;1.30;;
43801;SDS011;29429;51.074;13.764;2022-08-21T14:53:33;4.75;;;1.08;;
43801;SDS011;29429;51.074;13.764;2022-08-21T14:56:00;5.75;;;1.70;;
43801;SDS011;29429;51.074;13.764;2022-08-21T14:58:31;5.85;;;1.33;;
43801;SDS011;29429;51.074;13.764;2022-08-21T15:01:04;4.10;;;1.50;;
43801;SDS011;29429;51.074;13.764;2022-08-21T15:03:34;3.50;;;1.30;;
43801;SDS011;29429;51.074;13.764;2022-08-21T15:06:02;3.38;;;1.30;;
43801;SDS011;29429;51.074;13.764;2022-08-21T15:08:32;6.00;;;1.30;;
43801;SDS011;29429;51.074;13.764;2022-08-21T15:11:00;3.00;;;1.27;;
43801;SDS011;29429;51.074;13.764;2022-08-21T15:13:40;4.55;;;1.10;;
43801;SDS011;29429;51.074;13.764;2022-08-21T15:16:08;2.00;;;1.10;;
43801;SDS011;29429;51.074;13.764;2022-08-21T15:18:37;3.20;;;1.20;;
43801;SDS011;29429;51.074;13.764;2022-08-21T15:21:05;5.13;;;1.27;;
43801;SDS011;29429;51.074;13.764;2022-08-21T15:23:32;4.47;;;1.27;;
43801;SDS011;29429;51.074;13.764;2022-08-21T15:25:59;3.40;;;1.17;;
43801;SDS011;29429;51.074;13.764;2022-08-21T15:28:27;1.77;;;0.82;;
43801;SDS011;29429;51.074;13.764;2022-08-21T15:30:57;4.13;;;1.00;;
43801;SDS011;29429;51.074;13.764;2022-08-21T15:33:27;4.53;;;1.33;;
43801;SDS011;29429;51.074;13.764;2022-08-21T15:35:54;2.10;;;0.85;;
43801;SDS011;29429;51.074;13.764;2022-08-21T15:38:21;4.75;;;1.55;;
43801;SDS011;29429;51.074;13.764;2022-08-21T15:40:49;4.90;;;1.30;;
43801;SDS011;29429;51.074;13.764;2022-08-21T15:43:22;3.42;;;1.40;;
43801;SDS011;29429;51.074;13.764;2022-08-21T15:45:57;4.53;;;1.00;;
43801;SDS011;29429;51.074;13.764;2022-08-21T15:48:26;3.70;;;1.17;;
43801;SDS011;29429;51.074;13.764;2022-08-21T15:50:54;4.45;;;1.40;;
43801;SDS011;29429;51.074;13.764;2022-08-21T15:53:21;3.17;;;1.30;;
43801;SDS011;29429;51.074;13.764;2022-08-21T15:55:48;4.60;;;1.02;;
43801;SDS011;29429;51.074;13.764;2022-08-21T15:58:16;4.32;;;1.33;;
43801;SDS011;29429;51.074;13.764;2022-08-21T16:00:45;4.45;;;1.38;;
43801;SDS011;29429;51.074;13.764;2022-08-21T16:03:14;3.05;;;1.02;;
43801;SDS011;29429;51.074;13.764;2022-08-21T16:05:46;5.88;;;1.52;;
43801;SDS011;29429;51.074;13.764;2022-08-21T16:08:19;5.10;;;1.08;;
43801;SDS011;29429;51.074;13.764;2022-08-21T16:10:47;2.25;;;0.90;;
43801;SDS011;29429;51.074;13.764;2022-08-21T16:13:16;4.60;;;0.95;;
43801;SDS011;29429;51.074;13.764;2022-08-21T16:16:00;4.72;;;1.38;;
43801;SDS011;29429;51.074;13.764;2022-08-21T16:18:27;3.15;;;0.95;;
43801;SDS011;29429;51.074;13.764;2022-08-21T16:20:54;6.55;;;1.45;;
43801;SDS011;29429;51.074;13.764;2022-08-21T16:23:21;5.95;;;1.30;;
43801;SDS011;29429;51.074;13.764;2022-08-21T16:25:48;2.35;;;0.98;;
43801;SDS011;29429;51.074;13.764;2022-08-21T16:28:17;4.80;;;1.20;;
43801;SDS011;29429;51.074;13.764;2022-08-21T16:30:47;2.03;;;1.00;;